ADDS METAR Data INFO
IDs: Format: Raw Decoded Include TAF

Data at: 0257 UTC 21 Jun 2018

METAR for:KHLX (Hillsville/Twin Cnty, VA, US)
Text:KHLX 210235Z AUTO 29003KT 10SM SCT060 SCT075 OVC090 22/19 A2998 RMK AO2 LTG DSNT NE T02240191
Temperature: 22.4°C ( 72°F)
Dewpoint: 19.1°C ( 66°F) [RH = 82%]
Pressure (altimeter):29.98 inches Hg (1015.3 mb)
Winds:from the WNW (290 degrees) at 3 MPH (3 knots; 1.5 m/s)
Visibility:10 or more sm (16+ km)
Ceiling:9000 feet AGL
Clouds: scattered clouds at 6000 feet AGL, scattered clouds at 7500 feet AGL, overcast cloud deck at 9000 feet AGL
QC Flag:automated observation with no human augmentation